Time;durP1;ratioP1;P1;durP2;ratioP2;P2;SDS_P1;SDS_P2;PMS_P1;PMS_P2;Temp;Humidity;BMP_temperature;BMP_pressure;BME280_temperature;BME280_humidity;BME280_pressure;Samples;Min_cycle;Max_cycle;Signal;HPM_P1;HPM_P2
2021/07/07 00:01:00;;;;;;;1.00;0.83;;;17.90;99.90;;;;;;5035798;28;20223;-87
2021/07/07 00:03:29;;;;;;;0.20;0.20;;;17.90;99.90;;;;;;5052992;28;20229;-87
2021/07/07 00:05:54;;;;;;;1.40;0.40;;;18.00;99.90;;;;;;5034913;28;20211;-87
2021/07/07 00:08:20;;;;;;;0.20;0.20;;;18.10;99.90;;;;;;5053190;28;20182;-84
2021/07/07 00:10:47;;;;;;;0.10;0.10;;;18.10;99.90;;;;;;5035014;28;20193;-84
2021/07/07 00:13:13;;;;;;;2.83;0.30;;;18.00;99.90;;;;;;5049669;28;20592;-84
2021/07/07 00:15:39;;;;;;;0.20;0.20;;;17.70;99.90;;;;;;5037452;28;20173;-84
2021/07/07 00:18:08;;;;;;;0.10;0.10;;;17.60;99.90;;;;;;5054102;28;20209;-84
2021/07/07 00:20:38;;;;;;;0.40;0.40;;;17.70;99.90;;;;;;5036612;28;20189;-84
2021/07/07 00:23:04;;;;;;;0.10;0.10;;;17.70;99.90;;;;;;5052470;28;20216;-84
2021/07/07 00:25:30;;;;;;;1.07;0.30;;;17.80;99.90;;;;;;5058756;28;20276;-84
2021/07/07 00:27:55;;;;;;;0.10;0.10;;;17.80;99.90;;;;;;5058335;28;20190;-85
2021/07/07 00:30:21;;;;;;;0.17;0.17;;;17.80;99.90;;;;;;5048419;28;20178;-84
2021/07/07 00:32:47;;;;;;;0.20;0.20;;;17.50;99.90;;;;;;5052959;28;20210;-84
2021/07/07 00:35:13;;;;;;;0.20;0.20;;;17.60;99.90;;;;;;5052761;28;20195;-84
2021/07/07 00:37:39;;;;;;;0.10;0.10;;;17.60;99.90;;;;;;5051271;28;20189;-84
2021/07/07 00:40:05;;;;;;;0.20;0.20;;;17.70;99.90;;;;;;5051896;28;20181;-84
2021/07/07 00:42:31;;;;;;;0.20;0.20;;;17.70;99.90;;;;;;5052876;28;20188;-84
2021/07/07 00:44:57;;;;;;;0.10;0.10;;;17.80;99.90;;;;;;5052647;28;20276;-84
2021/07/07 00:47:23;;;;;;;0.13;0.13;;;17.80;99.90;;;;;;5034815;28;20196;-84
2021/07/07 00:49:48;;;;;;;0.20;0.20;;;17.80;99.90;;;;;;5050964;28;20230;-84
2021/07/07 00:52:14;;;;;;;0.10;0.10;;;17.80;99.90;;;;;;5034686;28;20346;-84
2021/07/07 00:54:40;;;;;;;0.30;0.30;;;17.80;99.90;;;;;;5034467;28;20209;-84
2021/07/07 00:57:27;;;;;;;0.10;0.10;;;17.70;99.90;;;;;;5051599;28;20174;-84
2021/07/07 00:59:54;;;;;;;0.20;0.20;;;17.70;99.90;;;;;;5052295;28;20188;-84
2021/07/07 01:02:21;;;;;;;0.20;0.20;;;17.70;99.90;;;;;;5034453;28;20561;-84
2021/07/07 01:04:47;;;;;;;0.10;0.10;;;17.70;99.90;;;;;;5052431;28;20208;-84
2021/07/07 01:07:13;;;;;;;0.20;0.20;;;17.60;99.90;;;;;;5052229;28;20570;-84
2021/07/07 01:09:38;;;;;;;0.10;0.10;;;17.60;99.90;;;;;;5052458;28;20181;-84
2021/07/07 01:12:06;;;;;;;0.97;0.30;;;17.60;99.90;;;;;;5034744;28;20205;-84
2021/07/07 01:14:31;;;;;;;0.20;0.20;;;17.60;99.90;;;;;;5052218;28;20208;-84
2021/07/07 01:16:57;;;;;;;0.20;0.20;;;17.50;99.90;;;;;;5018118;28;20654;-84
2021/07/07 01:19:23;;;;;;;0.20;0.20;;;17.50;99.90;;;;;;5026956;28;20184;-84
2021/07/07 01:21:50;;;;;;;0.10;0.10;;;17.50;99.90;;;;;;5036669;28;20204;-84
2021/07/07 01:24:18;;;;;;;0.73;0.27;;;17.50;99.90;;;;;;5052025;28;20636;-84
2021/07/07 01:26:45;;;;;;;0.50;0.50;;;17.40;99.90;;;;;;5051747;28;20227;-83
2021/07/07 01:29:11;;;;;;;0.40;0.40;;;17.50;99.90;;;;;;5034235;28;20187;-84
2021/07/07 01:31:38;;;;;;;0.57;0.30;;;17.40;99.90;;;;;;5048819;28;20189;-85
2021/07/07 01:34:06;;;;;;;1.60;0.83;;;17.40;99.90;;;;;;5025194;28;20210;-84
2021/07/07 01:36:33;;;;;;;0.30;0.30;;;17.40;99.90;;;;;;5033228;28;20189;-84
2021/07/07 01:38:58;;;;;;;0.10;0.10;;;17.40;99.90;;;;;;5051700;28;20169;-84
2021/07/07 01:41:25;;;;;;;0.30;0.30;;;17.40;99.90;;;;;;5049499;28;20184;-84
2021/07/07 01:43:52;;;;;;;0.37;0.37;;;17.30;99.90;;;;;;5037861;28;20201;-84
2021/07/07 01:46:18;;;;;;;0.30;0.30;;;17.30;99.90;;;;;;5034606;28;20181;-85
2021/07/07 01:48:43;;;;;;;0.10;0.10;;;17.30;99.90;;;;;;5051913;28;20174;-84
2021/07/07 01:51:09;;;;;;;0.20;0.20;;;17.20;99.90;;;;;;5041738;28;20230;-84
2021/07/07 01:53:35;;;;;;;0.10;0.10;;;17.00;99.90;;;;;;5034131;28;20570;-84
2021/07/07 01:56:01;;;;;;;0.20;0.20;;;16.90;99.90;;;;;;5051784;28;20188;-84
2021/07/07 01:58:26;;;;;;;0.20;0.20;;;16.90;99.90;;;;;;5033593;28;20177;-84
2021/07/07 02:00:52;;;;;;;0.10;0.10;;;17.00;99.90;;;;;;5051946;28;20178;-84
2021/07/07 02:03:18;;;;;;;0.23;0.23;;;17.10;99.90;;;;;;5051097;28;20705;-84
2021/07/07 02:05:44;;;;;;;0.20;0.20;;;17.10;99.90;;;;;;5051968;28;20737;-84
2021/07/07 02:08:10;;;;;;;0.10;0.10;;;17.00;99.90;;;;;;5033542;28;20193;-84
2021/07/07 02:10:38;;;;;;;1.10;0.30;;;17.00;99.90;;;;;;5037635;28;20182;-85
2021/07/07 02:13:13;;;;;;;0.10;0.10;;;17.00;99.90;;;;;;5050285;28;20271;-84
2021/07/07 02:15:39;;;;;;;0.03;0.03;;;16.90;99.90;;;;;;5050655;28;20173;-84
2021/07/07 02:18:06;;;;;;;0.10;0.10;;;16.60;99.90;;;;;;5030260;28;20206;-84
2021/07/07 02:20:35;;;;;;;0.20;0.20;;;16.40;99.90;;;;;;5059364;28;20192;-83
2021/07/07 02:23:01;;;;;;;0.20;0.20;;;16.30;99.90;;;;;;5033783;28;20572;-83
2021/07/07 02:25:30;;;;;;;2.73;0.60;;;16.40;99.90;;;;;;5034063;28;20189;-84
2021/07/07 02:27:57;;;;;;;0.37;0.37;;;16.30;99.90;;;;;;5051254;28;20273;-84
2021/07/07 02:30:26;;;;;;;0.10;0.10;;;16.30;99.90;;;;;;5037647;28;20196;-86
2021/07/07 02:32:52;;;;;;;0.13;0.13;;;16.50;99.90;;;;;;5041082;28;20208;-86
2021/07/07 02:35:22;;;;;;;0.10;0.10;;;16.60;99.90;;;;;;5043126;28;20831;-86
2021/07/07 02:37:49;;;;;;;0.10;0.10;;;16.70;99.90;;;;;;5025648;28;20182;-86
2021/07/07 02:40:17;;;;;;;0.13;0.13;;;16.80;99.90;;;;;;5055140;28;20185;-86
2021/07/07 02:42:43;;;;;;;0.10;0.10;;;16.80;99.90;;;;;;5036741;28;20286;-87
2021/07/07 02:45:11;;;;;;;0.20;0.20;;;16.80;99.90;;;;;;5035113;28;20220;-87
2021/07/07 02:47:38;;;;;;;0.10;0.10;;;16.90;99.90;;;;;;5036752;28;20185;-86
2021/07/07 02:50:05;;;;;;;0.20;0.20;;;17.00;99.90;;;;;;5055187;28;20193;-86
2021/07/07 02:52:31;;;;;;;1.60;0.37;;;17.00;99.90;;;;;;5039554;28;20582;-86
2021/07/07 02:54:57;;;;;;;0.33;0.33;;;17.00;99.90;;;;;;5039981;28;20251;-87
2021/07/07 02:57:22;;;;;;;0.20;0.20;;;17.00;99.90;;;;;;5041314;28;20192;-86
2021/07/07 02:59:48;;;;;;;0.10;0.10;;;17.10;99.90;;;;;;5039571;28;20181;-86
2021/07/07 03:02:13;;;;;;;0.10;0.10;;;17.00;99.90;;;;;;5054558;28;20234;-86
2021/07/07 03:04:39;;;;;;;0.20;0.20;;;16.90;99.90;;;;;;5053665;28;20208;-86
2021/07/07 03:07:05;;;;;;;0.20;0.20;;;16.90;99.90;;;;;;5036625;28;20280;-86
2021/07/07 03:09:31;;;;;;;0.53;0.53;;;16.80;99.90;;;;;;5036549;28;20335;-86
2021/07/07 03:11:57;;;;;;;0.30;0.30;;;16.90;99.90;;;;;;5041689;28;20217;-87
2021/07/07 03:14:23;;;;;;;0.20;0.20;;;16.80;99.90;;;;;;5054163;28;20242;-86
2021/07/07 03:16:48;;;;;;;0.20;0.20;;;16.80;99.90;;;;;;5050768;28;20271;-86
2021/07/07 03:19:14;;;;;;;0.13;0.13;;;16.80;99.90;;;;;;5035406;28;20244;-86
2021/07/07 03:21:40;;;;;;;0.10;0.10;;;16.80;99.90;;;;;;5035722;28;20734;-86
2021/07/07 03:24:07;;;;;;;0.10;0.10;;;16.90;99.90;;;;;;5051450;28;20990;-87
2021/07/07 03:26:33;;;;;;;0.40;0.40;;;17.00;99.90;;;;;;5053917;28;20573;-87
2021/07/07 03:28:58;;;;;;;0.10;0.10;;;17.00;99.90;;;;;;5040212;28;20275;-86
2021/07/07 03:31:24;;;;;;;0.10;0.10;;;17.00;99.90;;;;;;5053602;28;20216;-86
2021/07/07 03:33:50;;;;;;;0.10;0.10;;;17.00;99.90;;;;;;5035682;28;20209;-86
2021/07/07 03:36:17;;;;;;;0.20;0.20;;;17.00;99.90;;;;;;5052793;28;20185;-86
2021/07/07 03:38:42;;;;;;;0.10;0.10;;;17.00;99.90;;;;;;5053564;28;20180;-86
2021/07/07 03:41:08;;;;;;;0.20;0.20;;;16.70;99.90;;;;;;5052357;28;20195;-87
2021/07/07 03:43:34;;;;;;;0.20;0.20;;;16.70;99.90;;;;;;5068308;28;20209;-87
2021/07/07 03:45:59;;;;;;;0.10;0.10;;;16.70;99.90;;;;;;5033151;28;20194;-86
2021/07/07 03:48:25;;;;;;;0.10;0.10;;;16.70;99.90;;;;;;5051753;28;20215;-86
2021/07/07 03:50:51;;;;;;;0.20;0.20;;;16.60;99.90;;;;;;5030720;28;20675;-86
2021/07/07 03:53:16;;;;;;;0.50;0.50;;;16.50;99.90;;;;;;5036020;28;20270;-86
2021/07/07 03:55:43;;;;;;;0.20;0.20;;;16.50;99.90;;;;;;5024619;28;20200;-86
2021/07/07 03:58:08;;;;;;;0.10;0.10;;;16.50;99.90;;;;;;5061578;28;20189;-87
2021/07/07 04:00:34;;;;;;;0.33;0.33;;;16.30;99.90;;;;;;5039404;28;20569;-87
2021/07/07 04:03:12;;;;;;;0.10;0.10;;;16.30;99.90;;;;;;5034780;28;20192;-86
2021/07/07 04:05:38;;;;;;;0.10;0.10;;;16.50;99.90;;;;;;5035644;28;20667;-86
2021/07/07 04:08:04;;;;;;;0.10;0.10;;;16.50;99.90;;;;;;5034607;28;20275;-86
2021/07/07 04:10:29;;;;;;;0.40;0.30;;;16.50;99.90;;;;;;5053391;28;20335;-87
2021/07/07 04:12:55;;;;;;;0.43;0.30;;;16.60;99.90;;;;;;5034621;28;20326;-86
2021/07/07 04:15:21;;;;;;;0.10;0.10;;;16.80;99.90;;;;;;5053900;28;20653;-86
2021/07/07 04:17:47;;;;;;;0.10;0.10;;;16.70;99.90;;;;;;5039023;28;20201;-86
2021/07/07 04:20:19;;;;;;;0.40;0.40;;;16.70;99.90;;;;;;5051904;28;20286;-86
2021/07/07 04:22:46;;;;;;;0.50;0.30;;;16.80;99.90;;;;;;5055550;28;20189;-86
2021/07/07 04:25:14;;;;;;;0.20;0.20;;;16.90;99.90;;;;;;5034040;28;20187;-86
2021/07/07 04:27:40;;;;;;;0.10;0.10;;;16.90;99.90;;;;;;5053766;28;20181;-86
2021/07/07 04:30:09;;;;;;;0.20;0.20;;;17.00;99.90;;;;;;5034246;28;20738;-86
2021/07/07 04:32:35;;;;;;;0.10;0.10;;;17.00;99.90;;;;;;5052830;28;20687;-86
2021/07/07 04:35:00;;;;;;;0.10;0.10;;;17.10;99.90;;;;;;5042148;28;20197;-86
2021/07/07 04:37:26;;;;;;;0.40;0.40;;;17.00;99.90;;;;;;5052292;28;20702;-86
2021/07/07 04:39:57;;;;;;;0.20;0.20;;;17.10;99.90;;;;;;5055845;28;20177;-86
2021/07/07 04:42:26;;;;;;;0.20;0.20;;;17.10;99.90;;;;;;5034420;28;20613;-86
2021/07/07 04:44:52;;;;;;;0.27;0.20;;;17.10;99.90;;;;;;5058465;28;20201;-86
2021/07/07 04:47:18;;;;;;;0.20;0.20;;;17.10;99.90;;;;;;5067886;28;20189;-86
2021/07/07 04:49:45;;;;;;;0.20;0.20;;;17.10;99.90;;;;;;5058650;28;20185;-86
2021/07/07 04:52:11;;;;;;;0.10;0.10;;;17.10;99.90;;;;;;5034156;28;20460;-85
2021/07/07 04:54:37;;;;;;;0.10;0.10;;;17.10;99.90;;;;;;5052977;28;20242;-86
2021/07/07 04:57:03;;;;;;;1.20;1.13;;;17.00;99.90;;;;;;5034490;28;20223;-86
2021/07/07 04:59:29;;;;;;;0.50;0.37;;;17.00;99.90;;;;;;5034973;28;20193;-86
2021/07/07 05:01:54;;;;;;;0.40;0.40;;;17.00;99.90;;;;;;5041122;28;20232;-86
2021/07/07 05:04:20;;;;;;;0.10;0.10;;;17.00;99.90;;;;;;5034720;28;20203;-86
2021/07/07 05:06:45;;;;;;;0.43;0.43;;;17.10;99.90;;;;;;5051686;28;20207;-88
2021/07/07 05:09:11;;;;;;;0.10;0.10;;;17.00;99.90;;;;;;5051724;28;20274;-86
2021/07/07 05:11:37;;;;;;;0.20;0.20;;;17.00;99.90;;;;;;5052105;28;20184;-86
2021/07/07 05:14:03;;;;;;;0.40;0.40;;;17.10;99.90;;;;;;5034166;28;20246;-86
2021/07/07 05:16:29;;;;;;;0.17;0.17;;;17.20;99.90;;;;;;5050473;28;20193;-86
2021/07/07 05:18:55;;;;;;;0.60;0.43;;;17.20;99.90;;;;;;5039912;28;20208;-86
2021/07/07 05:21:20;;;;;;;0.10;0.10;;;17.30;99.90;;;;;;5050663;28;20262;-86
2021/07/07 05:23:46;;;;;;;0.10;0.10;;;17.40;99.90;;;;;;5039613;28;20200;-87
2021/07/07 05:26:11;;;;;;;0.10;0.10;;;17.40;99.90;;;;;;5035884;28;20270;-86
2021/07/07 05:28:37;;;;;;;0.13;0.13;;;17.50;99.90;;;;;;5054199;28;20189;-86
2021/07/07 05:31:07;;;;;;;0.17;0.17;;;17.50;99.90;;;;;;5053574;28;20185;-87
2021/07/07 05:33:35;;;;;;;0.20;0.20;;;17.60;99.90;;;;;;5055528;28;20230;-86
2021/07/07 05:36:06;;;;;;;0.20;0.20;;;17.70;99.90;;;;;;5034842;28;20193;-87
2021/07/07 05:38:31;;;;;;;0.20;0.20;;;17.70;99.90;;;;;;5051817;28;20188;-86
2021/07/07 05:40:57;;;;;;;0.53;0.30;;;17.70;99.90;;;;;;5051970;28;20181;-86
2021/07/07 05:43:23;;;;;;;0.57;0.30;;;17.60;99.90;;;;;;5031541;28;20216;-86
2021/07/07 05:45:50;;;;;;;0.30;0.30;;;17.70;99.90;;;;;;5033657;28;20193;-89
2021/07/07 05:48:15;;;;;;;0.17;0.17;;;17.70;99.90;;;;;;5033328;28;20200;-87
2021/07/07 05:50:41;;;;;;;0.40;0.27;;;17.80;99.90;;;;;;5034150;28;20263;-87
2021/07/07 05:53:07;;;;;;;0.10;0.10;;;17.80;99.90;;;;;;5053192;28;20717;-85
2021/07/07 05:55:32;;;;;;;0.13;0.13;;;17.80;99.90;;;;;;5040737;28;20882;-85
2021/07/07 05:57:58;;;;;;;0.40;0.40;;;17.90;99.90;;;;;;5053025;28;20193;-85
2021/07/07 06:00:25;;;;;;;0.13;0.13;;;18.00;99.90;;;;;;5039863;28;20761;-85
2021/07/07 06:02:52;;;;;;;0.63;0.50;;;18.10;99.90;;;;;;5063882;28;20189;-85
2021/07/07 06:05:22;;;;;;;0.27;0.27;;;18.10;99.90;;;;;;5041541;28;20604;-85
2021/07/07 06:07:49;;;;;;;0.13;0.13;;;18.10;99.90;;;;;;5045388;28;20558;-84
2021/07/07 06:10:17;;;;;;;0.27;0.27;;;18.00;99.90;;;;;;5057628;28;20185;-84
2021/07/07 06:12:43;;;;;;;0.20;0.20;;;17.90;99.90;;;;;;5067818;28;20242;-84
2021/07/07 06:15:11;;;;;;;0.10;0.10;;;18.00;99.90;;;;;;5062856;28;20265;-84
2021/07/07 06:17:37;;;;;;;0.10;0.10;;;18.00;99.90;;;;;;5066924;28;20195;-84
2021/07/07 06:20:04;;;;;;;0.10;0.10;;;18.00;99.90;;;;;;5043672;28;20174;-84
2021/07/07 06:22:31;;;;;;;0.60;0.40;;;17.90;99.90;;;;;;5063761;28;20188;-84
2021/07/07 06:24:56;;;;;;;0.30;0.30;;;18.10;99.90;;;;;;5042959;28;20205;-85
2021/07/07 06:27:22;;;;;;;0.47;0.30;;;18.20;99.90;;;;;;5064473;28;20239;-85
2021/07/07 06:29:48;;;;;;;0.17;0.17;;;18.30;99.90;;;;;;5066676;28;20181;-85
2021/07/07 06:32:14;;;;;;;0.40;0.40;;;18.30;99.90;;;;;;5061658;28;20229;-84
2021/07/07 06:34:40;;;;;;;0.40;0.40;;;18.40;99.90;;;;;;5052806;28;20571;-85
2021/07/07 06:37:09;;;;;;;0.50;0.30;;;18.50;99.90;;;;;;5063895;28;20184;-84
2021/07/07 06:39:35;;;;;;;0.23;0.23;;;18.50;99.90;;;;;;5067606;28;20177;-84
2021/07/07 06:42:00;;;;;;;0.60;0.50;;;18.70;99.90;;;;;;5051459;28;20192;-84
2021/07/07 06:44:26;;;;;;;0.30;0.30;;;18.90;99.90;;;;;;5064159;28;20212;-85
2021/07/07 06:46:52;;;;;;;0.33;0.33;;;19.10;99.90;;;;;;5061053;28;20408;-84
2021/07/07 06:49:18;;;;;;;0.20;0.20;;;19.30;99.90;;;;;;5056277;28;20184;-84
2021/07/07 06:51:45;;;;;;;0.50;0.50;;;19.40;99.90;;;;;;5066475;28;20622;-84
2021/07/07 06:54:10;;;;;;;1.03;0.67;;;19.30;99.90;;;;;;5074141;28;20216;-84
2021/07/07 06:56:36;;;;;;;0.20;0.20;;;19.40;99.90;;;;;;5062677;28;20185;-86
2021/07/07 06:59:02;;;;;;;0.17;0.17;;;19.10;99.90;;;;;;5063427;28;20174;-87
2021/07/07 07:01:28;;;;;;;0.87;0.87;;;19.10;99.90;;;;;;5059916;28;20185;-84
2021/07/07 07:03:53;;;;;;;2.00;0.40;;;19.40;99.90;;;;;;5064467;28;20205;-84
2021/07/07 07:06:19;;;;;;;0.40;0.40;;;19.50;99.90;;;;;;5067124;28;20185;-85
2021/07/07 07:08:44;;;;;;;0.73;0.27;;;19.70;99.90;;;;;;5063756;28;20227;-85
2021/07/07 07:11:17;;;;;;;1.03;0.70;;;20.00;99.90;;;;;;5068287;28;20181;-84
2021/07/07 07:13:42;;;;;;;0.20;0.20;;;20.20;99.90;;;;;;5065894;28;20245;-85
2021/07/07 07:16:08;;;;;;;0.20;0.20;;;20.30;99.90;;;;;;5041575;28;20192;-86
2021/07/07 07:18:33;;;;;;;0.20;0.20;;;20.30;99.90;;;;;;5062081;28;20727;-86
2021/07/07 07:21:00;;;;;;;0.27;0.20;;;20.40;99.90;;;;;;5053901;28;21783;-86
2021/07/07 07:23:28;;;;;;;0.10;0.10;;;20.30;99.90;;;;;;5034266;28;20213;-87
2021/07/07 07:25:54;;;;;;;0.13;0.13;;;20.30;99.90;;;;;;5053637;28;20185;-86
2021/07/07 07:28:19;;;;;;;0.47;0.20;;;20.30;99.90;;;;;;5037355;28;20180;-86
2021/07/07 07:30:46;;;;;;;0.40;0.40;;;20.20;99.90;;;;;;5037459;28;20189;-86
2021/07/07 07:33:11;;;;;;;0.20;0.20;;;20.30;99.90;;;;;;5037327;28;20213;-86
2021/07/07 07:35:37;;;;;;;0.93;0.77;;;20.40;99.90;;;;;;5071541;28;20190;-87
2021/07/07 07:38:07;;;;;;;0.30;0.30;;;20.40;99.90;;;;;;5066410;28;20634;-87
2021/07/07 07:40:41;;;;;;;0.30;0.30;;;20.30;99.90;;;;;;5055321;28;20220;-86
2021/07/07 07:43:09;;;;;;;0.20;0.20;;;20.50;99.90;;;;;;5051363;28;20242;-85
2021/07/07 07:45:35;;;;;;;0.30;0.30;;;20.80;99.90;;;;;;5056972;28;20218;-86
2021/07/07 07:48:03;;;;;;;0.77;0.50;;;21.00;99.90;;;;;;5037703;28;20186;-86
2021/07/07 07:50:32;;;;;;;0.47;0.47;;;20.90;99.90;;;;;;5055512;28;20650;-86
2021/07/07 07:52:58;;;;;;;0.10;0.10;;;21.20;99.90;;;;;;5043762;28;20202;-84
2021/07/07 07:55:24;;;;;;;0.47;0.47;;;21.10;99.90;;;;;;5058306;28;20642;-85
2021/07/07 07:57:50;;;;;;;0.10;0.10;;;20.80;99.90;;;;;;5058457;28;20182;-84
2021/07/07 08:00:20;;;;;;;0.40;0.40;;;21.20;99.90;;;;;;5043801;28;20245;-85
2021/07/07 08:02:46;;;;;;;0.40;0.40;;;21.50;99.90;;;;;;5066929;28;20239;-86
2021/07/07 08:05:13;;;;;;;0.20;0.20;;;21.60;99.90;;;;;;5059874;28;20293;-85
2021/07/07 08:07:41;;;;;;;0.40;0.40;;;21.80;99.90;;;;;;5049047;28;20561;-85
2021/07/07 08:10:09;;;;;;;0.40;0.40;;;21.70;99.90;;;;;;5060929;28;20209;-84
2021/07/07 08:12:34;;;;;;;0.37;0.37;;;21.70;99.90;;;;;;5046948;28;20195;-85
2021/07/07 08:15:00;;;;;;;0.93;0.53;;;21.80;99.90;;;;;;5043930;28;20205;-84
2021/07/07 08:17:25;;;;;;;0.57;0.57;;;21.50;99.90;;;;;;5058840;28;20197;-85
2021/07/07 08:19:51;;;;;;;0.73;0.20;;;21.80;99.90;;;;;;5063382;28;20170;-84
2021/07/07 08:22:18;;;;;;;0.43;0.43;;;22.00;99.90;;;;;;5046299;28;20576;-85
2021/07/07 08:24:45;;;;;;;0.33;0.23;;;21.90;99.90;;;;;;5065670;28;20614;-84
2021/07/07 08:27:11;;;;;;;0.50;0.50;;;21.70;99.90;;;;;;5051573;28;20204;-85
2021/07/07 08:29:37;;;;;;;0.27;0.27;;;22.10;99.90;;;;;;5044322;28;20188;-85
2021/07/07 08:32:05;;;;;;;3.43;0.50;;;22.20;99.90;;;;;;5060516;28;20181;-85
2021/07/07 08:34:32;;;;;;;0.33;0.33;;;22.60;99.90;;;;;;5046379;28;20236;-84
2021/07/07 08:36:58;;;;;;;0.50;0.40;;;22.80;99.90;;;;;;5044080;28;20245;-85
2021/07/07 08:39:24;;;;;;;0.73;0.70;;;22.80;99.90;;;;;;5060923;28;20185;-84
2021/07/07 08:41:50;;;;;;;0.30;0.30;;;22.90;99.90;;;;;;5060385;28;20265;-85
2021/07/07 08:44:16;;;;;;;1.13;0.40;;;22.70;99.90;;;;;;5049264;28;20220;-86
2021/07/07 08:46:42;;;;;;;0.40;0.30;;;22.90;99.90;;;;;;5036187;28;20189;-86
2021/07/07 08:49:08;;;;;;;0.60;0.60;;;23.20;99.90;;;;;;5038216;28;20181;-86
2021/07/07 08:51:40;;;;;;;0.33;0.33;;;22.70;99.90;;;;;;5054148;28;20232;-86
2021/07/07 08:54:09;;;;;;;0.20;0.20;;;22.40;99.90;;;;;;5015685;28;20268;-87
2021/07/07 08:56:40;;;;;;;0.63;0.30;;;22.80;99.90;;;;;;5041097;28;20177;-87
2021/07/07 08:59:07;;;;;;;0.57;0.50;;;22.50;99.90;;;;;;5035500;28;20174;-86
2021/07/07 09:01:58;;;;;;;0.23;0.20;;;22.50;99.90;;;;;;5035618;28;20247;-87
2021/07/07 09:04:30;;;;;;;0.47;0.47;;;22.80;99.90;;;;;;5053174;28;20307;-86
2021/07/07 09:07:00;;;;;;;0.47;0.47;;;22.80;99.90;;;;;;5054440;28;20181;-86
2021/07/07 09:09:51;;;;;;;0.50;0.50;;;23.10;99.90;;;;;;5046868;28;20177;-86
2021/07/07 09:12:18;;;;;;;0.67;0.53;;;23.10;99.90;;;;;;5031147;28;20592;-86
2021/07/07 09:14:58;;;;;;;1.60;0.93;;;23.50;99.90;;;;;;5062706;28;20720;-85
2021/07/07 09:17:24;;;;;;;0.40;0.40;;;23.60;99.90;;;;;;5037017;28;20189;-85
2021/07/07 09:19:50;;;;;;;0.20;0.20;;;23.60;99.90;;;;;;5046521;28;20217;-86
2021/07/07 09:22:22;;;;;;;0.47;0.47;;;23.90;99.90;;;;;;5059335;28;20177;-86
2021/07/07 09:24:48;;;;;;;0.43;0.43;;;24.20;99.90;;;;;;5058166;28;20198;-85
2021/07/07 09:27:16;;;;;;;0.23;0.23;;;23.40;99.90;;;;;;5046654;28;20190;-85
2021/07/07 09:29:42;;;;;;;0.27;0.27;;;23.80;99.90;;;;;;5041019;28;20257;-85
2021/07/07 09:32:26;;;;;;;0.50;0.30;;;24.20;99.90;;;;;;5049269;28;20203;-85
2021/07/07 09:34:56;;;;;;;1.23;1.23;;;24.50;99.90;;;;;;5064251;28;20197;-84
2021/07/07 09:37:23;;;;;;;0.27;0.27;;;24.60;99.90;;;;;;5043975;28;20181;-85
2021/07/07 09:39:49;;;;;;;0.20;0.20;;;24.10;99.90;;;;;;5045686;28;20178;-85
2021/07/07 09:42:25;;;;;;;0.23;0.23;;;24.50;99.90;;;;;;5052650;28;20178;-85
2021/07/07 09:44:51;;;;;;;0.30;0.30;;;24.80;99.90;;;;;;5050124;28;20198;-84
2021/07/07 09:47:18;;;;;;;0.20;0.20;;;24.90;99.90;;;;;;5066032;28;20181;-85
2021/07/07 09:49:47;;;;;;;0.83;0.57;;;25.10;99.90;;;;;;5072158;28;20169;-84
2021/07/07 09:52:20;;;;;;;0.60;0.50;;;25.30;99.90;;;;;;5050341;28;20268;-85
2021/07/07 09:54:46;;;;;;;3.70;0.60;;;25.50;99.90;;;;;;5066330;28;20211;-84
2021/07/07 09:57:14;;;;;;;0.70;0.70;;;25.70;99.90;;;;;;5051924;28;20269;-84
2021/07/07 09:59:39;;;;;;;0.30;0.30;;;25.50;99.90;;;;;;5075243;28;20566;-84
2021/07/07 10:02:05;;;;;;;0.33;0.33;;;25.50;99.90;;;;;;5070791;28;20182;-85
2021/07/07 10:04:34;;;;;;;0.30;0.30;;;24.90;99.90;;;;;;5050767;28;20284;-85
2021/07/07 10:07:00;;;;;;;0.30;0.30;;;25.40;99.90;;;;;;5054933;28;20177;-85
2021/07/07 10:09:27;;;;;;;0.37;0.37;;;24.60;99.90;;;;;;5071462;28;20188;-85
2021/07/07 10:11:56;;;;;;;0.17;0.17;;;24.50;99.90;;;;;;5047503;28;20193;-85
2021/07/07 10:14:23;;;;;;;0.10;0.10;;;24.90;99.90;;;;;;5054835;28;20588;-84
2021/07/07 10:16:50;;;;;;;0.20;0.20;;;25.00;99.90;;;;;;5066518;28;20193;-85
2021/07/07 10:19:17;;;;;;;0.20;0.20;;;25.20;99.90;;;;;;5059051;28;20200;-84
2021/07/07 10:21:44;;;;;;;1.27;1.00;;;24.90;99.90;;;;;;5056732;28;20178;-85
2021/07/07 10:24:10;;;;;;;0.57;0.57;;;25.20;99.90;;;;;;5071266;28;20205;-86
2021/07/07 10:26:37;;;;;;;0.43;0.43;;;25.40;99.90;;;;;;5049586;28;20193;-86
2021/07/07 10:29:05;;;;;;;0.30;0.30;;;25.80;99.90;;;;;;5073905;28;20207;-84
2021/07/07 10:32:01;;;;;;;0.33;0.33;;;26.10;99.90;;;;;;5059533;28;20243;-87
2021/07/07 10:34:29;;;;;;;0.20;0.20;;;26.20;99.90;;;;;;5025011;28;20233;-87
2021/07/07 10:36:56;;;;;;;0.40;0.40;;;26.30;99.90;;;;;;5046085;28;20242;-86
2021/07/07 10:39:22;;;;;;;0.33;0.33;;;26.60;99.90;;;;;;5045788;28;20188;-86
2021/07/07 10:42:00;;;;;;;0.70;0.57;;;27.00;99.90;;;;;;5055665;28;20189;-86
2021/07/07 10:44:27;;;;;;;0.83;0.83;;;27.20;99.90;;;;;;5051794;28;20201;-85
2021/07/07 10:47:13;;;;;;;0.30;0.30;;;27.10;99.90;;;;;;5042708;28;20181;-85
2021/07/07 10:49:42;;;;;;;0.23;0.23;;;27.00;99.90;;;;;;5036315;28;20180;-86
2021/07/07 10:52:11;;;;;;;0.30;0.30;;;27.20;99.90;;;;;;5035320;28;20189;-86
2021/07/07 10:54:41;;;;;;;0.20;0.20;;;27.10;99.90;;;;;;5034357;28;20213;-86
2021/07/07 10:57:10;;;;;;;0.40;0.40;;;26.70;99.90;;;;;;5044590;28;20792;-86
2021/07/07 10:59:41;;;;;;;1.43;1.03;;;27.00;99.90;;;;;;5036132;28;20182;-87
2021/07/07 11:02:24;;;;;;;0.30;0.30;;;27.20;99.90;;;;;;5041837;28;21083;-86
2021/07/07 11:04:58;;;;;;;0.20;0.20;;;27.30;99.90;;;;;;5053855;28;20255;-86
2021/07/07 11:07:38;;;;;;;0.20;0.20;;;27.40;99.90;;;;;;5037110;28;20688;-86
2021/07/07 11:10:16;;;;;;;0.20;0.20;;;27.30;99.90;;;;;;5058475;28;20191;-86
2021/07/07 11:12:42;;;;;;;0.27;0.27;;;26.80;99.90;;;;;;5039598;28;20205;-85
2021/07/07 11:15:09;;;;;;;0.40;0.40;;;27.20;99.90;;;;;;5036504;28;20236;-86
2021/07/07 11:17:56;;;;;;;0.57;0.30;;;27.50;99.90;;;;;;5041367;28;20327;-86
2021/07/07 11:20:24;;;;;;;0.20;0.20;;;27.40;99.90;;;;;;5039530;28;20189;-86
2021/07/07 11:23:07;;;;;;;0.30;0.30;;;26.90;99.90;;;;;;5071640;28;20197;-86
2021/07/07 11:25:34;;;;;;;0.20;0.20;;;27.10;99.90;;;;;;5054208;28;20224;-87
2021/07/07 11:28:02;;;;;;;0.27;0.27;;;27.20;99.90;;;;;;5036921;28;20586;-86
2021/07/07 11:30:28;;;;;;;2.10;0.30;;;27.00;99.90;;;;;;5065149;28;20299;-86
2021/07/07 11:32:57;;;;;;;0.93;0.50;;;27.20;99.90;;;;;;5054903;28;20659;-86
2021/07/07 11:35:24;;;;;;;0.23;0.23;;;27.50;99.90;;;;;;5053232;28;20170;-86
2021/07/07 11:37:55;;;;;;;0.20;0.20;;;27.60;99.90;;;;;;5035168;28;20174;-86
2021/07/07 11:40:22;;;;;;;1.17;0.60;;;27.50;99.90;;;;;;5052942;28;20299;-86
2021/07/07 11:43:13;;;;;;;0.20;0.20;;;26.90;99.90;;;;;;5036517;28;20324;-86
2021/07/07 11:45:43;;;;;;;0.87;0.83;;;26.20;99.90;;;;;;5062040;28;20653;-86
2021/07/07 11:48:23;;;;;;;0.30;0.30;;;26.60;99.90;;;;;;5036148;28;20653;-86
2021/07/07 11:50:57;;;;;;;0.40;0.40;;;26.90;99.90;;;;;;5048172;28;20180;-86
2021/07/07 11:53:35;;;;;;;2.23;0.87;;;27.10;99.90;;;;;;5040024;28;20220;-86
2021/07/07 11:56:15;;;;;;;0.37;0.37;;;27.20;99.90;;;;;;5054273;28;20680;-87
2021/07/07 11:58:43;;;;;;;0.20;0.20;;;27.50;99.90;;;;;;5056555;28;20173;-86
2021/07/07 12:01:23;;;;;;;1.17;1.07;;;27.60;99.90;;;;;;5065375;28;20191;-86
2021/07/07 12:03:52;;;;;;;0.73;0.30;;;27.70;99.90;;;;;;5068935;28;20232;-86
2021/07/07 12:06:18;;;;;;;0.40;0.40;;;27.50;99.90;;;;;;5057296;28;20189;-87
2021/07/07 12:08:45;;;;;;;0.27;0.27;;;27.30;99.90;;;;;;5068458;28;20554;-88
2021/07/07 12:11:15;;;;;;;0.30;0.30;;;26.80;99.90;;;;;;5051786;28;20467;-88
2021/07/07 12:13:49;;;;;;;0.50;0.40;;;27.20;99.90;;;;;;5052904;28;20210;-87
2021/07/07 12:16:20;;;;;;;0.63;0.40;;;27.10;99.90;;;;;;5037568;28;20193;-87
2021/07/07 12:18:48;;;;;;;0.50;0.50;;;26.90;99.90;;;;;;5042050;28;20254;-88
2021/07/07 12:21:36;;;;;;;0.57;0.57;;;26.90;99.90;;;;;;5056435;28;20300;-87
2021/07/07 12:24:08;;;;;;;0.23;0.23;;;26.50;99.90;;;;;;5036205;28;20205;-87
2021/07/07 12:26:37;;;;;;;0.80;0.80;;;26.30;99.90;;;;;;5028824;28;20208;-87
2021/07/07 12:29:04;;;;;;;0.33;0.33;;;26.40;99.90;;;;;;5056086;28;20209;-86
2021/07/07 12:31:37;;;;;;;1.03;0.40;;;26.30;99.90;;;;;;5044367;28;20556;-87
2021/07/07 12:34:05;;;;;;;0.60;0.60;;;26.60;99.90;;;;;;5035209;28;20701;-87
2021/07/07 12:36:32;;;;;;;0.27;0.27;;;27.00;99.90;;;;;;5052976;28;20215;-87
2021/07/07 12:39:01;;;;;;;0.20;0.20;;;27.50;99.90;;;;;;5052990;28;20646;-87
2021/07/07 12:41:35;;;;;;;0.30;0.30;;;27.70;99.90;;;;;;5035235;28;20259;-87
2021/07/07 12:44:12;;;;;;;0.27;0.27;;;27.80;99.90;;;;;;5051992;28;20213;-87
2021/07/07 12:46:47;;;;;;;0.40;0.40;;;27.70;99.90;;;;;;5052107;28;20181;-87
2021/07/07 12:49:21;;;;;;;0.30;0.30;;;27.50;99.90;;;;;;5071894;28;20173;-87
2021/07/07 12:51:47;;;;;;;0.30;0.30;;;27.50;99.90;;;;;;5035071;28;20540;-87